createdAt,value
2022-11-25T00:01:40.955Z,38.15
2022-11-25T00:04:11.349Z,39.00
2022-11-25T00:06:39.660Z,41.50
2022-11-25T00:09:11.653Z,42.83
2022-11-25T00:14:13.833Z,40.53
2022-11-25T00:16:46.728Z,42.97
2022-11-25T00:19:18.521Z,42.28
2022-11-25T00:21:46.924Z,36.25
2022-11-25T00:24:17.119Z,40.45
2022-11-25T00:26:46.050Z,42.30
2022-11-25T00:29:15.135Z,44.88
2022-11-25T00:31:44.031Z,43.20
2022-11-25T00:34:14.586Z,44.20
2022-11-25T00:36:44.562Z,44.15
2022-11-25T00:39:15.004Z,45.58
2022-11-25T00:42:02.019Z,46.28
2022-11-25T00:44:37.839Z,41.90
2022-11-25T00:47:09.635Z,43.17
2022-11-25T00:49:38.780Z,40.08
2022-11-25T00:52:09.395Z,43.38
2022-11-25T00:54:38.631Z,43.22
2022-11-25T00:57:07.399Z,41.25
2022-11-25T00:59:35.765Z,47.35
2022-11-25T01:02:04.832Z,44.35
2022-11-25T01:04:34.304Z,41.53
2022-11-25T01:07:03.379Z,49.38
2022-11-25T01:09:33.405Z,43.65
2022-11-25T01:12:01.772Z,42.80
2022-11-25T01:14:36.635Z,41.28
2022-11-25T01:17:06.092Z,46.40
2022-11-25T01:19:35.450Z,43.00
2022-11-25T01:22:03.877Z,46.78
2022-11-25T01:24:33.915Z,42.13
2022-11-25T01:27:02.728Z,43.08
2022-11-25T01:29:31.768Z,43.15
2022-11-25T01:32:00.332Z,46.53
2022-11-25T01:34:32.097Z,43.85
2022-11-25T01:37:00.759Z,42.40
2022-11-25T01:39:32.952Z,51.97
2022-11-25T01:42:04.515Z,42.63
2022-11-25T01:44:34.833Z,47.53
2022-11-25T01:47:12.246Z,44.10
2022-11-25T01:49:44.435Z,41.03
2022-11-25T01:52:19.383Z,47.83
2022-11-25T01:54:55.624Z,44.60
2022-11-25T01:57:29.795Z,46.30
2022-11-25T02:00:04.070Z,46.47
2022-11-25T02:02:33.878Z,46.35
2022-11-25T02:05:07.844Z,51.85
2022-11-25T02:07:37.969Z,44.92
2022-11-25T02:10:11.727Z,48.30
2022-11-25T02:12:48.156Z,48.38
2022-11-25T02:15:17.492Z,46.83
2022-11-25T02:17:46.477Z,46.60
2022-11-25T02:20:18.413Z,51.83
2022-11-25T02:22:55.663Z,51.92
2022-11-25T02:25:28.080Z,51.05
2022-11-25T02:28:03.019Z,53.70
2022-11-25T02:30:31.543Z,59.58
2022-11-25T02:33:01.947Z,54.33
2022-11-25T02:35:34.039Z,59.58
2022-11-25T02:38:09.123Z,57.35
2022-11-25T02:40:45.289Z,55.65
2022-11-25T02:43:13.848Z,54.20
2022-11-25T02:45:57.753Z,54.40
2022-11-25T02:48:46.127Z,56.30
2022-11-25T02:51:17.652Z,57.33
2022-11-25T02:53:46.654Z,60.08
2022-11-25T02:56:18.071Z,62.40
2022-11-25T02:58:46.756Z,57.10
2022-11-25T03:01:15.679Z,65.63
2022-11-25T03:03:44.371Z,57.17
2022-11-25T03:06:12.884Z,57.58
2022-11-25T03:08:41.778Z,60.38
2022-11-25T03:11:13.614Z,60.17
2022-11-25T03:13:43.904Z,62.30
2022-11-25T03:16:12.467Z,59.00
2022-11-25T03:18:40.909Z,56.30
2022-11-25T03:21:09.482Z,57.67
2022-11-25T03:23:38.458Z,58.35
2022-11-25T03:26:07.893Z,54.75
2022-11-25T03:28:36.916Z,60.70
2022-11-25T03:31:11.788Z,55.50
2022-11-25T03:33:40.583Z,52.65
2022-11-25T03:36:09.390Z,52.75
2022-11-25T03:38:38.099Z,53.17
2022-11-25T03:41:07.299Z,55.90
2022-11-25T03:43:36.001Z,48.08
2022-11-25T03:46:06.668Z,53.80
2022-11-25T03:48:35.719Z,44.03
2022-11-25T03:51:04.400Z,51.60
2022-11-25T03:53:32.935Z,49.30
2022-11-25T03:56:03.963Z,50.10
2022-11-25T03:58:32.852Z,58.70
2022-11-25T04:01:03.609Z,49.63
2022-11-25T04:03:33.917Z,52.38
2022-11-25T04:06:02.624Z,51.42
2022-11-25T04:08:32.179Z,50.65
2022-11-25T04:11:01.027Z,50.10
2022-11-25T04:13:32.575Z,47.00
2022-11-25T04:16:01.151Z,51.70
2022-11-25T04:18:29.576Z,50.55
2022-11-25T04:21:04.207Z,48.42
2022-11-25T04:23:33.476Z,50.65
2022-11-25T04:26:05.845Z,51.22
2022-11-25T04:28:39.198Z,49.85
2022-11-25T04:31:08.435Z,48.38
2022-11-25T04:33:40.005Z,47.35
2022-11-25T04:36:12.887Z,54.45
2022-11-25T04:38:41.774Z,54.65
2022-11-25T04:41:10.477Z,58.10
2022-11-25T04:43:44.075Z,57.03
2022-11-25T04:46:18.195Z,48.90
2022-11-25T04:48:52.427Z,45.92
2022-11-25T04:51:24.609Z,48.53
2022-11-25T04:53:59.300Z,48.75
2022-11-25T04:56:28.186Z,50.13
2022-11-25T04:59:14.993Z,53.72
2022-11-25T05:01:47.639Z,49.13
2022-11-25T05:04:26.271Z,45.50
2022-11-25T05:06:57.750Z,43.85
2022-11-25T05:09:27.759Z,48.72
2022-11-25T05:12:14.623Z,45.25
2022-11-25T05:14:43.479Z,45.30
2022-11-25T05:17:15.406Z,47.45
2022-11-25T05:22:18.001Z,40.17
2022-11-25T05:24:48.163Z,40.70
2022-11-25T05:27:17.370Z,42.05
2022-11-25T05:29:50.152Z,46.20
2022-11-25T05:32:23.381Z,36.67
2022-11-25T05:34:51.922Z,41.38
2022-11-25T05:37:24.517Z,38.05
2022-11-25T05:40:01.845Z,37.20
2022-11-25T05:42:36.562Z,34.72
2022-11-25T05:47:37.922Z,34.95
2022-11-25T05:50:09.488Z,33.58
2022-11-25T05:52:40.325Z,31.57
2022-11-25T05:55:09.931Z,35.47
2022-11-25T05:57:39.151Z,31.23
2022-11-25T06:00:11.826Z,33.00
2022-11-25T06:05:23.769Z,34.45
2022-11-25T06:07:54.777Z,33.72
2022-11-25T06:10:24.856Z,33.47
2022-11-25T06:12:54.605Z,37.55
2022-11-25T06:15:23.294Z,30.10
2022-11-25T06:17:54.587Z,34.03
2022-11-25T06:20:27.288Z,35.00
2022-11-25T06:22:59.213Z,30.08
2022-11-25T06:25:34.686Z,34.08
2022-11-25T06:28:12.868Z,30.35
2022-11-25T06:30:46.450Z,28.10
2022-11-25T06:33:21.935Z,28.05
2022-11-25T06:35:51.502Z,30.42
2022-11-25T06:38:21.781Z,29.88
2022-11-25T06:40:54.148Z,27.45
2022-11-25T06:43:24.855Z,30.70
2022-11-25T06:45:53.533Z,30.80
2022-11-25T06:48:22.574Z,31.98
2022-11-25T06:50:59.009Z,38.63
2022-11-25T06:53:30.764Z,34.25
2022-11-25T06:56:08.163Z,31.50
2022-11-25T06:58:37.508Z,31.75
2022-11-25T07:01:07.824Z,36.63
2022-11-25T07:03:37.175Z,30.95
2022-11-25T07:06:06.132Z,32.30
2022-11-25T07:08:35.732Z,34.75
2022-11-25T07:11:06.184Z,28.80
2022-11-25T07:13:34.921Z,32.38
2022-11-25T07:16:04.755Z,30.15
2022-11-25T07:18:36.094Z,31.80
2022-11-25T07:21:07.404Z,33.22
2022-11-25T07:23:39.085Z,32.17
2022-11-25T07:26:09.836Z,32.65
2022-11-25T07:28:39.583Z,33.20
2022-11-25T07:31:28.615Z,29.25
2022-11-25T07:34:00.788Z,29.88
2022-11-25T07:36:30.543Z,31.85
2022-11-25T07:39:04.448Z,30.70
2022-11-25T07:41:33.165Z,31.05
2022-11-25T07:44:03.266Z,33.03
2022-11-25T07:46:36.244Z,38.05
2022-11-25T07:49:07.875Z,29.10
2022-11-25T07:51:39.297Z,35.65
2022-11-25T07:54:13.906Z,36.17
2022-11-25T07:56:55.399Z,31.20
2022-11-25T07:59:27.848Z,34.67
2022-11-25T08:02:09.815Z,35.83
2022-11-25T08:04:40.129Z,39.38
2022-11-25T08:07:09.052Z,46.58
2022-11-25T08:09:39.629Z,43.33
2022-11-25T08:12:08.486Z,39.95
2022-11-25T08:14:37.602Z,41.38
2022-11-25T08:17:06.278Z,40.78
2022-11-25T08:19:36.187Z,38.55
2022-11-25T08:22:15.630Z,43.33
2022-11-25T08:24:57.253Z,44.25
2022-11-25T08:27:38.096Z,44.85
2022-11-25T08:30:22.140Z,49.00
2022-11-25T08:33:13.577Z,46.47
2022-11-25T08:36:01.089Z,44.58
2022-11-25T08:38:52.763Z,42.25
2022-11-25T08:41:38.090Z,46.90
2022-11-25T08:44:17.487Z,43.25
2022-11-25T08:46:55.339Z,46.05
2022-11-25T08:49:40.942Z,44.08
2022-11-25T08:52:21.474Z,44.05
2022-11-25T08:54:53.138Z,45.92
2022-11-25T08:57:23.368Z,45.78
2022-11-25T08:59:51.976Z,44.00
2022-11-25T09:02:21.016Z,38.83
2022-11-25T09:04:50.189Z,37.83
2022-11-25T09:07:19.515Z,37.13
2022-11-25T09:09:48.409Z,40.65
2022-11-25T09:12:17.354Z,41.13
2022-11-25T09:14:47.438Z,35.15
2022-11-25T09:17:16.714Z,40.10
2022-11-25T09:19:45.707Z,37.20
2022-11-25T09:22:14.515Z,36.65
2022-11-25T09:24:45.445Z,36.33
2022-11-25T09:27:15.127Z,34.92
2022-11-25T09:29:45.996Z,40.72
2022-11-25T09:32:16.210Z,36.28
2022-11-25T09:34:45.203Z,33.97
2022-11-25T09:37:14.182Z,36.10
2022-11-25T09:39:44.127Z,40.97
2022-11-25T09:42:48.121Z,41.90
2022-11-25T09:45:40.908Z,36.55
2022-11-25T09:48:29.441Z,40.30
2022-11-25T09:51:07.357Z,41.78
2022-11-25T09:53:45.736Z,40.22
2022-11-25T09:56:26.678Z,41.58
2022-11-25T09:59:00.960Z,45.30
2022-11-25T10:01:32.334Z,48.50
2022-11-25T10:04:09.284Z,46.05
2022-11-25T10:06:49.472Z,44.47
2022-11-25T10:09:26.086Z,46.38
2022-11-25T10:11:58.186Z,46.83
2022-11-25T10:14:33.754Z,53.33
2022-11-25T10:17:12.941Z,44.15
2022-11-25T10:19:52.837Z,48.28
2022-11-25T10:22:26.161Z,49.72
2022-11-25T10:25:00.548Z,45.65
2022-11-25T10:27:39.951Z,50.63
2022-11-25T10:30:19.860Z,50.60
2022-11-25T10:32:59.215Z,52.75
2022-11-25T10:35:38.002Z,51.92
2022-11-25T10:38:21.477Z,44.30
2022-11-25T10:40:53.900Z,49.92
2022-11-25T10:43:27.301Z,45.30
2022-11-25T10:46:12.322Z,45.78
2022-11-25T10:48:54.804Z,49.75
2022-11-25T10:51:38.780Z,55.55
2022-11-25T10:54:15.515Z,54.45
2022-11-25T10:56:48.630Z,48.53
2022-11-25T10:59:25.882Z,56.55
2022-11-25T11:02:07.411Z,67.07
2022-11-25T11:04:38.163Z,78.35
2022-11-25T11:07:11.306Z,79.82
2022-11-25T11:09:42.129Z,65.25
2022-11-25T11:12:22.559Z,60.92
2022-11-25T11:14:52.669Z,53.33
2022-11-25T11:17:36.841Z,51.50
2022-11-25T11:20:25.536Z,62.88
2022-11-25T11:23:09.086Z,60.55
2022-11-25T11:25:56.477Z,63.58
2022-11-25T11:28:33.413Z,64.78
2022-11-25T11:31:19.097Z,75.32
2022-11-25T11:34:04.876Z,82.93
2022-11-25T11:36:53.434Z,72.00
2022-11-25T11:42:33.434Z,67.15
2022-11-25T11:45:14.009Z,59.88
2022-11-25T11:47:55.990Z,65.57
2022-11-25T11:53:06.314Z,62.17
2022-11-25T11:56:00.307Z,54.28
2022-11-25T11:58:58.894Z,56.35
2022-11-25T12:01:40.352Z,51.75
2022-11-25T12:04:19.186Z,53.50
2022-11-25T12:07:07.931Z,65.95
2022-11-25T12:09:49.287Z,55.53
2022-11-25T12:12:23.031Z,51.47
2022-11-25T12:15:03.312Z,63.15
2022-11-25T12:17:48.329Z,54.17
2022-11-25T12:20:23.834Z,56.33
2022-11-25T12:23:02.335Z,59.10
2022-11-25T12:25:36.194Z,59.75
2022-11-25T12:28:09.335Z,70.75
2022-11-25T12:30:46.294Z,61.88
2022-11-25T12:33:21.831Z,70.15
2022-11-25T12:36:01.132Z,75.97
2022-11-25T12:38:40.995Z,74.30
2022-11-25T12:41:24.718Z,62.42
2022-11-25T12:44:02.735Z,60.22
2022-11-25T12:46:38.427Z,64.30
2022-11-25T12:49:17.182Z,65.82
2022-11-25T12:52:32.604Z,59.65
2022-11-25T12:55:15.770Z,56.38
2022-11-25T12:58:23.048Z,56.45
2022-11-25T13:01:33.048Z,56.22
2022-11-25T13:04:29.946Z,49.35
2022-11-25T13:07:23.974Z,51.22
2022-11-25T13:10:20.560Z,58.63
2022-11-25T13:13:06.179Z,61.13
2022-11-25T13:15:41.493Z,55.75
2022-11-25T13:18:18.111Z,59.45
2022-11-25T13:20:52.152Z,59.95
2022-11-25T13:23:29.749Z,56.28
2022-11-25T13:26:37.113Z,56.40
2022-11-25T13:29:44.720Z,69.55
2022-11-25T13:32:44.650Z,62.05
2022-11-25T13:35:52.031Z,60.20
2022-11-25T13:39:05.872Z,54.63
2022-11-25T13:41:46.429Z,58.25
2022-11-25T13:44:24.162Z,67.68
2022-11-25T13:46:54.888Z,62.35
2022-11-25T13:49:44.303Z,59.40
2022-11-25T13:52:33.345Z,55.22
2022-11-25T13:55:22.441Z,54.83
2022-11-25T13:58:18.087Z,60.90
2022-11-25T14:01:06.998Z,54.90
2022-11-25T14:04:00.467Z,59.45
2022-11-25T14:07:04.227Z,51.58
2022-11-25T14:09:46.435Z,56.55
2022-11-25T14:12:58.009Z,60.88
2022-11-25T14:16:06.907Z,53.42
2022-11-25T14:22:01.734Z,61.25
2022-11-25T14:24:37.237Z,67.80
2022-11-25T14:27:14.543Z,56.90
2022-11-25T14:29:50.520Z,60.65
2022-11-25T14:32:26.468Z,61.03
2022-11-25T14:35:04.928Z,70.63
2022-11-25T14:37:41.045Z,63.20
2022-11-25T14:40:20.117Z,73.85
2022-11-25T14:42:53.856Z,67.25
2022-11-25T14:45:27.282Z,67.15
2022-11-25T14:47:58.131Z,68.07
2022-11-25T14:50:35.260Z,65.97
2022-11-25T14:53:08.912Z,70.47
2022-11-25T14:55:39.790Z,57.85
2022-11-25T14:58:13.960Z,63.38
2022-11-25T15:01:02.252Z,61.88
2022-11-25T15:03:31.168Z,61.50
2022-11-25T15:06:08.000Z,60.13
2022-11-25T15:08:41.478Z,65.72
2022-11-25T15:11:15.850Z,67.50
2022-11-25T15:13:46.263Z,71.47
2022-11-25T15:16:20.365Z,73.50
2022-11-25T15:18:52.092Z,72.10
2022-11-25T15:21:24.303Z,69.90
2022-11-25T15:23:53.273Z,71.13
2022-11-25T15:26:27.178Z,67.28
2022-11-25T15:28:57.311Z,61.10
2022-11-25T15:31:31.921Z,69.90
2022-11-25T15:34:03.592Z,75.30
2022-11-25T15:36:32.612Z,78.78
2022-11-25T15:39:16.137Z,64.68
2022-11-25T15:41:47.155Z,61.17
2022-11-25T15:44:23.087Z,55.80
2022-11-25T15:47:01.749Z,56.03
2022-11-25T15:49:31.133Z,48.28
2022-11-25T15:52:05.056Z,55.38
2022-11-25T15:54:42.695Z,52.90
2022-11-25T15:57:19.144Z,65.70
2022-11-25T15:59:50.495Z,62.33
2022-11-25T16:02:54.668Z,57.40
2022-11-25T16:05:33.414Z,55.40
2022-11-25T16:08:16.750Z,60.42
2022-11-25T16:10:56.951Z,64.03
2022-11-25T16:13:39.825Z,63.53
2022-11-25T16:19:06.947Z,65.47
2022-11-25T16:21:45.946Z,70.32
2022-11-25T16:24:27.974Z,82.15
2022-11-25T16:29:32.945Z,62.53
2022-11-25T16:32:02.485Z,66.85
2022-11-25T16:34:33.459Z,59.75
2022-11-25T16:37:02.452Z,67.65
2022-11-25T16:39:31.179Z,65.85
2022-11-25T16:42:04.391Z,63.67
2022-11-25T16:44:35.468Z,60.95
2022-11-25T16:47:04.888Z,55.47
2022-11-25T16:49:35.405Z,60.25
2022-11-25T16:52:04.779Z,63.13
2022-11-25T16:54:34.125Z,69.15
2022-11-25T16:57:06.026Z,59.17
2022-11-25T16:59:38.594Z,62.00
2022-11-25T17:02:17.456Z,64.60
2022-11-25T17:04:48.717Z,64.82
2022-11-25T17:07:36.023Z,59.97
2022-11-25T17:10:06.224Z,58.65
2022-11-25T17:12:36.763Z,61.17
2022-11-25T17:17:41.280Z,58.60
2022-11-25T17:20:17.240Z,69.40
2022-11-25T17:22:47.628Z,61.60
2022-11-25T17:25:21.599Z,58.53
2022-11-25T17:27:51.803Z,58.50
2022-11-25T17:30:23.665Z,60.53
2022-11-25T17:32:59.911Z,72.25
2022-11-25T17:35:30.978Z,61.47
2022-11-25T17:38:01.832Z,61.90
2022-11-25T17:40:33.058Z,81.72
2022-11-25T17:43:02.030Z,95.30
2022-11-25T17:45:33.613Z,97.28
2022-11-25T17:50:32.738Z,88.40
2022-11-25T17:53:04.636Z,73.22
2022-11-25T17:55:34.843Z,62.55
2022-11-25T17:58:04.138Z,79.28
2022-11-25T18:00:35.169Z,66.95
2022-11-25T18:03:04.831Z,66.18
2022-11-25T18:05:36.312Z,60.92
2022-11-25T18:08:05.318Z,54.80
2022-11-25T18:10:34.384Z,55.17
2022-11-25T18:13:04.489Z,56.58
2022-11-25T18:15:35.191Z,50.22
2022-11-25T18:18:05.465Z,50.85
2022-11-25T18:20:35.845Z,53.53
2022-11-25T18:23:04.895Z,55.75
2022-11-25T18:25:35.391Z,58.78
2022-11-25T18:28:06.091Z,56.50
2022-11-25T18:30:36.840Z,63.93
2022-11-25T18:33:26.377Z,59.92
2022-11-25T18:36:07.069Z,62.88
2022-11-25T18:39:06.401Z,59.88
2022-11-25T18:41:59.985Z,64.18
2022-11-25T18:47:48.041Z,62.95
2022-11-25T18:50:42.513Z,61.88
2022-11-25T18:53:26.962Z,61.75
2022-11-25T18:56:17.883Z,59.22
2022-11-25T18:58:54.745Z,65.05
2022-11-25T19:01:28.748Z,61.88
2022-11-25T19:04:04.485Z,63.70
2022-11-25T19:06:45.214Z,63.47
2022-11-25T19:09:27.959Z,59.05
2022-11-25T19:12:05.697Z,61.63
2022-11-25T19:14:44.231Z,59.70
2022-11-25T19:17:34.417Z,68.05
2022-11-25T19:20:31.159Z,63.85
2022-11-25T19:23:19.418Z,60.42
2022-11-25T19:26:04.345Z,54.42
2022-11-25T19:28:36.240Z,74.32
2022-11-25T19:31:24.952Z,59.10
2022-11-25T19:34:07.971Z,63.60
2022-11-25T19:36:47.535Z,63.85
2022-11-25T19:39:27.000Z,66.63
2022-11-25T19:42:07.604Z,60.30
2022-11-25T19:44:53.274Z,66.82
2022-11-25T19:47:33.070Z,64.00
2022-11-25T19:50:09.141Z,64.65
2022-11-25T19:52:47.382Z,64.00
2022-11-25T19:55:34.002Z,62.08
2022-11-25T19:58:08.226Z,58.35
2022-11-25T20:00:39.363Z,60.67
2022-11-25T20:03:17.846Z,66.82
2022-11-25T20:05:47.625Z,64.95
2022-11-25T20:08:20.356Z,56.65
2022-11-25T20:10:49.891Z,58.05
2022-11-25T20:13:20.700Z,62.95
2022-11-25T20:18:23.921Z,62.25
2022-11-25T20:21:01.142Z,57.58
2022-11-25T20:23:38.605Z,62.67
2022-11-25T20:26:16.460Z,68.30
2022-11-25T20:28:48.308Z,63.17
2022-11-25T20:31:18.232Z,60.05
2022-11-25T20:33:56.632Z,57.83
2022-11-25T20:36:45.247Z,57.17
2022-11-25T20:39:24.060Z,63.13
2022-11-25T20:42:03.678Z,60.65
2022-11-25T20:44:42.647Z,61.30
2022-11-25T20:47:20.770Z,63.72
2022-11-25T20:49:58.177Z,62.58
2022-11-25T20:52:44.571Z,59.55
2022-11-25T20:55:25.149Z,59.00
2022-11-25T20:58:01.313Z,54.20
2022-11-25T21:00:55.566Z,62.28
2022-11-25T21:03:30.949Z,60.65
2022-11-25T21:06:20.394Z,67.63
2022-11-25T21:09:07.133Z,65.45
2022-11-25T21:11:48.408Z,72.20
2022-11-25T21:14:38.843Z,62.28
2022-11-25T21:17:18.832Z,60.13
2022-11-25T21:19:54.775Z,86.28
2022-11-25T21:22:41.469Z,83.60
2022-11-25T21:25:25.739Z,73.82
2022-11-25T21:28:09.921Z,67.70
2022-11-25T21:30:56.705Z,71.30
2022-11-25T21:33:35.720Z,67.35
2022-11-25T21:36:20.871Z,62.88
2022-11-25T21:39:04.305Z,65.05
2022-11-25T21:41:39.261Z,69.25
2022-11-25T21:44:10.033Z,73.95
2022-11-25T21:46:38.757Z,64.05
2022-11-25T21:49:12.839Z,63.78
2022-11-25T21:51:43.047Z,69.53
2022-11-25T21:54:12.352Z,68.57
2022-11-25T21:56:41.216Z,67.45
2022-11-25T21:59:19.995Z,58.97
2022-11-25T22:01:49.011Z,71.72
2022-11-25T22:04:21.121Z,61.33
2022-11-25T22:06:51.109Z,55.30
2022-11-25T22:09:20.403Z,59.53
2022-11-25T22:11:53.239Z,60.67
2022-11-25T22:14:29.082Z,61.03
2022-11-25T22:16:58.952Z,57.97
2022-11-25T22:19:29.933Z,54.55
2022-11-25T22:21:59.261Z,53.17
2022-11-25T22:24:28.376Z,60.60
2022-11-25T22:26:59.275Z,67.85
2022-11-25T22:29:34.453Z,61.03
2022-11-25T22:32:09.662Z,58.38
2022-11-25T22:34:43.418Z,59.45
2022-11-25T22:37:18.454Z,57.27
2022-11-25T22:39:47.848Z,60.22
2022-11-25T22:42:21.490Z,56.42
2022-11-25T22:44:51.498Z,50.75
2022-11-25T22:47:28.370Z,57.70
2022-11-25T22:49:58.736Z,63.20
2022-11-25T22:52:31.271Z,61.05
2022-11-25T22:55:03.851Z,54.65
2022-11-25T22:57:32.519Z,58.00
2022-11-25T23:00:01.052Z,62.55
2022-11-25T23:02:35.222Z,61.35
2022-11-25T23:05:15.781Z,57.80
2022-11-25T23:07:45.293Z,59.85
2022-11-25T23:10:19.781Z,50.47
2022-11-25T23:12:49.033Z,65.78
2022-11-25T23:15:19.340Z,55.75
2022-11-25T23:17:50.929Z,54.72
2022-11-25T23:20:24.571Z,56.85
2022-11-25T23:22:54.155Z,66.05
2022-11-25T23:25:24.579Z,55.42
2022-11-25T23:27:53.679Z,54.15
2022-11-25T23:30:24.762Z,57.25
2022-11-25T23:32:55.143Z,54.27
2022-11-25T23:35:31.426Z,63.50
2022-11-25T23:38:00.953Z,59.33
2022-11-25T23:40:30.195Z,53.53
2022-11-25T23:42:59.027Z,50.15
2022-11-25T23:45:28.869Z,61.17
2022-11-25T23:47:58.545Z,52.75
2022-11-25T23:50:32.452Z,53.28
2022-11-25T23:53:05.077Z,58.92
2022-11-25T23:55:37.321Z,57.35
2022-11-25T23:58:15.131Z,54.83
